Terminal Aerodrome Forecast
Issued by NWS Charleston, SC

Home | Current Version | Previous Version | Text Only | Print | Product List | Glossary On
Versions: 1 2 3 4 5 6 7 8 9 10 11 12 13 14 15 16 17
000
FTUS42 KCHS 190500
TAFSAV
TAF
KSAV 190534Z 1906/2006 03006KT P6SM OVC004
     FM191300 36008KT P6SM OVC007
     FM191700 02010KT 6SM -SHRA BKN009 OVC014
     FM200200 01012KT P6SM VCSH BKN009 OVC015=

USA.gov is the U.S. government's official web portal to all federal, state and local government web resources and services.